Ames, Texas
Current Conditions -  °F | °C
As of 12:55 PM on Tuesday 27 Jan 2015 (Local Time) from KBMT Reporting Station
Clear Clear  
Wind Chill: 73°   Ceiling: Unl
Heat Index: 73°   Visibility: 10mi
Dew Point: 45°   Wind: 3mph
Humidity: 37%   Direction: 10°N
Pressure: 30.12"   Gusts: NA
Location:  30.0821°N, 94.7401°W
Report Text: KBMT 271855Z AUTO 01003KT 10SM CLR 23/07 A3012 RMK AO2 T02280073
Loading
Personal Weather Stations






























Interactive Weather Map New forecast layout! Learn more

10-Day Weather Forecast

Advertisements
Track Severe Weather on mobile